Weather at Gregorio Luperon International Airport

Public forecast

Using degrees Celsius for public forecast. Weather courtesy of forecast.io.

Current aviation weather report (METAR) for Gregorio Luperon International Airport

Retrieved 2020/09/28 09:00 UTC (4 minutes ago):

MDPP 280900Z 00000KT 9999 SCT018 23/22 Q1010

Aviation forecast (TAF) for Gregorio Luperon International Airport

Forecast is more than 6 hours old.

Retrieved 2020-09-28 00:18 UTC (9 hours ago):

TAF MDPP 272200Z 2800/2900 09010KT 9999 FEW020 BECMG 2802/2804 00000KT